createdAt,value
2022-09-14T00:01:44.346Z,18.68
2022-09-14T00:04:16.732Z,18.48
2022-09-14T00:06:45.514Z,18.29
2022-09-14T00:09:20.455Z,18.12
2022-09-14T00:11:49.962Z,17.96
2022-09-14T00:14:19.026Z,17.82
2022-09-14T00:16:47.793Z,17.70
2022-09-14T00:19:24.716Z,18.18
2022-09-14T00:21:58.122Z,20.66
2022-09-14T00:24:28.640Z,22.10
2022-09-14T00:26:57.184Z,21.37
2022-09-14T00:29:25.535Z,20.44
2022-09-14T00:31:53.733Z,19.78
2022-09-14T00:34:22.052Z,19.33
2022-09-14T00:36:51.970Z,19.01
2022-09-14T00:39:22.189Z,18.75
2022-09-14T00:41:52.309Z,18.54
2022-09-14T00:44:20.483Z,18.35
2022-09-14T00:46:53.571Z,18.16
2022-09-14T00:49:37.309Z,18.01
2022-09-14T00:52:10.305Z,17.86
2022-09-14T00:54:42.363Z,17.75
2022-09-14T00:57:11.766Z,18.24
2022-09-14T00:59:42.500Z,20.70
2022-09-14T01:02:16.972Z,21.99
2022-09-14T01:04:45.791Z,21.14
2022-09-14T01:07:26.773Z,20.23
2022-09-14T01:10:19.736Z,19.57
2022-09-14T01:13:10.848Z,19.11
2022-09-14T01:16:09.091Z,18.76
2022-09-14T01:18:46.109Z,18.49
2022-09-14T01:21:29.499Z,18.27
2022-09-14T01:24:17.784Z,18.06
2022-09-14T01:26:48.724Z,17.88
2022-09-14T01:29:41.475Z,17.76
2022-09-14T01:32:18.351Z,18.48
2022-09-14T01:34:52.258Z,21.07
2022-09-14T01:37:29.475Z,21.80
2022-09-14T01:40:05.249Z,20.82
2022-09-14T01:42:35.415Z,20.00
2022-09-14T01:45:10.502Z,19.48
2022-09-14T01:48:08.627Z,19.10
2022-09-14T01:50:54.004Z,18.76
2022-09-14T01:53:43.989Z,18.53
2022-09-14T01:56:33.159Z,18.31
2022-09-14T01:59:11.672Z,18.11
2022-09-14T02:01:53.836Z,18.62
2022-09-14T02:04:46.420Z,21.17
2022-09-14T02:07:15.517Z,21.83
2022-09-14T02:09:45.020Z,20.89
2022-09-14T02:12:14.114Z,20.11
2022-09-14T02:14:47.309Z,19.59
2022-09-14T02:17:15.516Z,19.22
2022-09-14T02:19:51.334Z,18.94
2022-09-14T02:22:19.407Z,18.70
2022-09-14T02:24:48.418Z,18.49
2022-09-14T02:27:16.778Z,18.88
2022-09-14T02:29:45.361Z,21.28
2022-09-14T02:32:39.031Z,22.40
2022-09-14T02:35:26.458Z,21.32
2022-09-14T02:38:20.640Z,20.36
2022-09-14T02:41:15.443Z,19.72
2022-09-14T02:43:56.107Z,19.29
2022-09-14T02:46:38.766Z,18.97
2022-09-14T02:49:32.799Z,18.69
2022-09-14T02:52:15.418Z,18.42
2022-09-14T02:54:59.355Z,18.95
2022-09-14T02:57:27.426Z,21.43
2022-09-14T02:59:55.602Z,21.93
2022-09-14T03:02:23.716Z,20.97
2022-09-14T03:04:52.562Z,20.11
2022-09-14T03:07:20.633Z,19.52
2022-09-14T03:09:48.704Z,19.10
2022-09-14T03:12:16.780Z,18.76
2022-09-14T03:14:44.847Z,18.48
2022-09-14T03:17:13.225Z,18.87
2022-09-14T03:19:42.218Z,21.19
2022-09-14T03:22:10.292Z,22.03
2022-09-14T03:24:38.270Z,21.06
2022-09-14T03:27:06.337Z,20.15
2022-09-14T03:29:34.402Z,19.53
2022-09-14T03:32:02.981Z,19.08
2022-09-14T03:34:31.056Z,18.75
2022-09-14T03:36:59.127Z,18.46
2022-09-14T03:39:27.405Z,18.82
2022-09-14T03:41:55.476Z,21.14
2022-09-14T03:44:23.498Z,22.03
2022-09-14T03:46:51.510Z,21.07
2022-09-14T03:49:19.518Z,20.15
2022-09-14T03:51:47.565Z,19.51
2022-09-14T03:54:15.580Z,19.05
2022-09-14T03:56:43.582Z,18.68
2022-09-14T03:59:11.599Z,18.38
2022-09-14T04:01:39.825Z,18.58
2022-09-14T04:04:08.094Z,20.81
2022-09-14T04:06:36.194Z,21.83
2022-09-14T04:09:04.772Z,20.92
2022-09-14T04:11:34.279Z,19.99
2022-09-14T04:14:04.192Z,19.35
2022-09-14T04:16:32.597Z,18.89
2022-09-14T04:19:00.847Z,18.55
2022-09-14T04:21:29.224Z,18.24
2022-09-14T04:24:15.950Z,18.57
2022-09-14T04:26:46.022Z,21.18
2022-09-14T04:29:14.907Z,21.79
2022-09-14T04:31:43.355Z,20.78
2022-09-14T04:34:14.862Z,19.88
2022-09-14T04:36:43.049Z,19.26
2022-09-14T04:39:13.935Z,18.83
2022-09-14T04:41:42.270Z,18.49
2022-09-14T04:44:10.441Z,18.80
2022-09-14T04:46:45.095Z,21.14
2022-09-14T04:49:21.718Z,21.98
2022-09-14T04:51:50.038Z,20.94
2022-09-14T04:54:19.035Z,20.04
2022-09-14T04:56:47.283Z,19.41
2022-09-14T04:59:15.653Z,18.96
2022-09-14T05:01:47.740Z,18.61
2022-09-14T05:04:16.718Z,18.30
2022-09-14T05:06:45.311Z,18.60
2022-09-14T05:09:16.000Z,20.91
2022-09-14T05:11:44.925Z,21.93
2022-09-14T05:14:14.635Z,20.97
2022-09-14T05:16:44.009Z,20.03
2022-09-14T05:19:15.445Z,19.39
2022-09-14T05:21:44.379Z,18.94
2022-09-14T05:24:15.527Z,18.59
2022-09-14T05:26:45.140Z,18.29
2022-09-14T05:29:19.728Z,18.60
2022-09-14T05:31:48.339Z,21.02
2022-09-14T05:34:18.175Z,22.21
2022-09-14T05:36:46.323Z,21.35
2022-09-14T05:39:14.604Z,20.39
2022-09-14T05:41:42.774Z,19.73
2022-09-14T05:44:11.153Z,19.28
2022-09-14T05:46:39.290Z,18.96
2022-09-14T05:49:07.500Z,18.69
2022-09-14T05:51:35.674Z,18.46
2022-09-14T05:54:09.688Z,18.24
2022-09-14T05:56:38.565Z,18.74
2022-09-14T05:59:07.363Z,21.17
2022-09-14T06:01:35.492Z,22.13
2022-09-14T06:04:04.023Z,21.23
2022-09-14T06:06:33.626Z,20.34
2022-09-14T06:09:02.225Z,19.74
2022-09-14T06:11:33.542Z,19.33
2022-09-14T06:14:02.408Z,19.02
2022-09-14T06:16:30.835Z,18.77
2022-09-14T06:19:00.023Z,18.56
2022-09-14T06:21:33.737Z,18.38
2022-09-14T06:24:03.627Z,18.89
2022-09-14T06:26:32.443Z,21.36
2022-09-14T06:29:00.501Z,22.36
2022-09-14T06:31:28.572Z,21.48
2022-09-14T06:33:56.644Z,20.61
2022-09-14T06:36:27.382Z,20.02
2022-09-14T06:38:56.270Z,19.62
2022-09-14T06:41:30.076Z,19.33
2022-09-14T06:44:01.935Z,19.08
2022-09-14T06:46:33.288Z,18.88
2022-09-14T06:49:08.532Z,18.69
2022-09-14T06:51:42.532Z,18.54
2022-09-14T06:54:13.166Z,19.06
2022-09-14T06:56:42.568Z,21.51
2022-09-14T06:59:17.196Z,22.65
2022-09-14T07:01:45.967Z,21.76
2022-09-14T07:04:14.563Z,20.86
2022-09-14T07:06:45.372Z,20.25
2022-09-14T07:09:14.966Z,19.84
2022-09-14T07:11:43.693Z,19.55
2022-09-14T07:14:12.794Z,19.34
2022-09-14T07:16:41.679Z,19.18
2022-09-14T07:19:13.231Z,20.49
2022-09-14T07:21:41.404Z,22.50
2022-09-14T07:24:10.913Z,22.09
2022-09-14T07:26:42.053Z,21.25
2022-09-14T07:29:12.353Z,20.63
2022-09-14T07:31:43.725Z,20.21
2022-09-14T07:34:13.743Z,19.94
2022-09-14T07:36:43.128Z,19.74
2022-09-14T07:39:14.903Z,19.56
2022-09-14T07:41:43.660Z,19.39
2022-09-14T07:44:15.655Z,19.80
2022-09-14T07:46:45.881Z,22.15
2022-09-14T07:49:15.761Z,23.38
2022-09-14T07:51:44.902Z,22.56
2022-09-14T07:54:14.698Z,21.68
2022-09-14T07:56:43.819Z,21.11
2022-09-14T08:02:03.115Z,20.36
2022-09-14T08:04:31.221Z,20.16
2022-09-14T08:06:59.222Z,19.99
2022-09-14T08:09:27.790Z,19.86
2022-09-14T08:11:56.390Z,21.11
2022-09-14T08:14:25.385Z,22.96
2022-09-14T08:16:53.502Z,22.63
2022-09-14T08:19:21.638Z,21.90
2022-09-14T08:21:49.698Z,21.36
2022-09-14T08:24:21.975Z,21.01
2022-09-14T08:26:50.347Z,20.76
2022-09-14T08:29:19.717Z,20.58
2022-09-14T08:31:49.182Z,20.43
2022-09-14T08:34:17.933Z,20.32
2022-09-14T08:36:47.455Z,20.24
2022-09-14T08:39:16.642Z,20.16
2022-09-14T08:41:55.474Z,20.13
2022-09-14T08:44:29.067Z,21.73
2022-09-14T08:47:00.109Z,23.64
2022-09-14T08:49:40.363Z,23.18
2022-09-14T08:52:29.632Z,22.37
2022-09-14T08:55:00.781Z,21.80
2022-09-14T08:57:50.156Z,21.48
2022-09-14T09:00:25.796Z,21.24
2022-09-14T09:03:19.673Z,21.06
2022-09-14T09:06:03.311Z,20.93
2022-09-14T09:08:48.401Z,20.82
2022-09-14T09:11:21.165Z,20.73
2022-09-14T09:13:52.304Z,20.65
2022-09-14T09:16:24.339Z,20.59
2022-09-14T09:18:58.994Z,20.55
2022-09-14T09:21:39.151Z,20.53
2022-09-14T09:24:36.899Z,21.24
2022-09-14T09:27:11.439Z,23.47
2022-09-14T09:29:39.986Z,23.06
2022-09-14T09:32:38.100Z,22.43
2022-09-14T09:35:24.088Z,21.90
2022-09-14T09:37:57.484Z,21.64
2022-09-14T09:40:40.795Z,21.46
2022-09-14T09:43:24.242Z,21.31
2022-09-14T09:46:07.132Z,21.17
2022-09-14T09:48:38.206Z,21.08
2022-09-14T09:51:19.816Z,20.99
2022-09-14T09:54:13.364Z,20.92
2022-09-14T09:56:59.149Z,20.87
2022-09-14T09:59:29.986Z,20.85
2022-09-14T10:02:17.969Z,20.83
2022-09-14T10:05:09.036Z,20.83
2022-09-14T10:07:50.110Z,21.86
2022-09-14T10:10:39.860Z,24.10
2022-09-14T10:13:26.088Z,23.72
2022-09-14T10:16:04.759Z,23.02
2022-09-14T10:18:33.188Z,22.58
2022-09-14T10:21:08.221Z,22.33
2022-09-14T10:23:38.750Z,22.15
2022-09-14T10:26:12.663Z,22.03
2022-09-14T10:28:46.567Z,21.96
2022-09-14T10:31:20.480Z,21.94
2022-09-14T10:33:56.842Z,21.94
2022-09-14T10:36:31.470Z,21.94
2022-09-14T10:39:16.639Z,21.96
2022-09-14T10:41:53.824Z,22.01
2022-09-14T10:44:40.123Z,22.08
2022-09-14T10:47:14.440Z,22.17
2022-09-14T10:49:48.349Z,22.24
2022-09-14T10:52:41.713Z,22.32
2022-09-14T10:55:20.130Z,22.42
2022-09-14T10:58:04.992Z,22.50
2022-09-14T11:00:45.935Z,22.59
2022-09-14T11:03:46.153Z,22.67
2022-09-14T11:06:20.304Z,22.75
2022-09-14T11:09:00.253Z,22.81
2022-09-14T11:11:37.540Z,22.84
2022-09-14T11:14:44.115Z,22.85
2022-09-14T11:17:21.403Z,22.89
2022-09-14T11:20:00.125Z,22.89
2022-09-14T11:22:55.433Z,22.88
2022-09-14T11:25:33.631Z,22.86
2022-09-14T11:28:09.395Z,22.85
2022-09-14T11:30:46.443Z,22.86
2022-09-14T11:33:19.463Z,22.86
2022-09-14T11:35:59.720Z,22.84
2022-09-14T11:38:36.178Z,22.82
2022-09-14T11:41:20.595Z,22.83
2022-09-14T11:44:07.147Z,22.83
2022-09-14T11:46:38.370Z,22.81
2022-09-14T11:49:21.634Z,22.78
2022-09-14T11:51:55.852Z,22.74
2022-09-14T11:54:24.930Z,22.73
2022-09-14T11:56:58.879Z,22.75
2022-09-14T11:59:41.937Z,22.74
2022-09-14T12:02:25.476Z,22.72
2022-09-14T12:05:05.747Z,22.69
2022-09-14T12:07:43.266Z,22.67
2022-09-14T12:10:14.612Z,22.63
2022-09-14T12:12:43.894Z,22.59
2022-09-14T12:15:25.179Z,22.56
2022-09-14T12:18:15.165Z,22.53
2022-09-14T12:21:00.334Z,22.49
2022-09-14T12:23:37.524Z,22.46
2022-09-14T12:26:10.922Z,22.43
2022-09-14T12:28:48.520Z,22.39
2022-09-14T12:31:38.043Z,22.34
2022-09-14T12:34:18.039Z,22.30
2022-09-14T12:36:45.981Z,22.25
2022-09-14T12:39:26.049Z,22.21
2022-09-14T12:41:54.025Z,22.18
2022-09-14T12:44:43.704Z,22.15
2022-09-14T12:47:28.875Z,22.09
2022-09-14T12:50:12.823Z,22.03
2022-09-14T12:52:40.890Z,21.98
2022-09-14T12:56:01.596Z,21.94
2022-09-14T12:58:49.657Z,21.88
2022-09-14T13:01:44.097Z,21.83
2022-09-14T13:04:29.299Z,21.78
2022-09-14T13:07:00.749Z,21.74
2022-09-14T13:09:32.082Z,21.69
2022-09-14T13:12:06.415Z,21.66
2022-09-14T13:14:59.677Z,21.62
2022-09-14T13:17:27.956Z,21.57
2022-09-14T13:20:06.468Z,21.54
2022-09-14T13:22:34.848Z,21.50
2022-09-14T13:25:03.022Z,21.48
2022-09-14T13:27:37.442Z,21.45
2022-09-14T13:30:06.158Z,21.41
2022-09-14T13:32:43.111Z,21.37
2022-09-14T13:35:55.314Z,21.34
2022-09-14T13:38:24.307Z,21.29
2022-09-14T13:40:55.656Z,21.26
2022-09-14T13:43:24.037Z,21.23
2022-09-14T13:45:52.578Z,21.19
2022-09-14T13:48:21.497Z,21.17
2022-09-14T13:50:52.041Z,21.13
2022-09-14T13:53:43.456Z,21.58
2022-09-14T13:56:26.787Z,24.12
2022-09-14T13:59:07.147Z,24.94
2022-09-14T14:01:41.851Z,24.05
2022-09-14T14:04:38.302Z,23.33
2022-09-14T14:07:12.731Z,22.78
2022-09-14T14:09:44.182Z,22.44
2022-09-14T14:12:23.310Z,22.15
2022-09-14T14:15:17.493Z,21.88
2022-09-14T14:17:45.873Z,21.64
2022-09-14T14:20:38.518Z,21.43
2022-09-14T14:23:06.489Z,21.26
2022-09-14T14:25:47.872Z,22.64
2022-09-14T14:28:17.479Z,24.51
2022-09-14T14:30:46.063Z,23.96
2022-09-14T14:33:18.846Z,23.09
2022-09-14T14:35:48.850Z,22.45
2022-09-14T14:38:16.935Z,22.02
2022-09-14T14:40:46.896Z,21.72
2022-09-14T14:43:21.361Z,21.98
2022-09-14T14:45:52.019Z,24.10
2022-09-14T14:48:20.073Z,25.28
2022-09-14T14:50:48.656Z,24.48
2022-09-14T14:53:16.728Z,23.50
2022-09-14T14:55:44.791Z,22.75
2022-09-14T14:58:17.353Z,22.24
2022-09-14T15:00:46.259Z,22.36
2022-09-14T15:03:15.643Z,24.34
2022-09-14T15:05:45.412Z,25.51
2022-09-14T15:08:16.324Z,24.69
2022-09-14T15:10:44.428Z,23.57
2022-09-14T15:13:13.495Z,22.75
2022-09-14T15:15:43.193Z,22.20
2022-09-14T15:18:11.475Z,21.79
2022-09-14T15:20:39.542Z,22.10
2022-09-14T15:23:08.307Z,24.15
2022-09-14T15:25:36.310Z,25.32
2022-09-14T15:28:04.328Z,24.52
2022-09-14T15:30:32.441Z,23.51
2022-09-14T15:33:00.514Z,22.76
2022-09-14T15:35:28.686Z,22.20
2022-09-14T15:37:56.760Z,22.32
2022-09-14T15:40:24.875Z,24.32
2022-09-14T15:42:53.727Z,25.44
2022-09-14T15:45:21.854Z,24.56
2022-09-14T15:47:50.059Z,23.53
2022-09-14T15:50:18.744Z,22.77
2022-09-14T15:52:46.824Z,22.24
2022-09-14T15:55:15.510Z,22.35
2022-09-14T15:57:43.684Z,24.28
2022-09-14T16:00:14.104Z,25.37
2022-09-14T16:02:43.615Z,24.55
2022-09-14T16:05:13.225Z,23.54
2022-09-14T16:07:41.910Z,22.82
2022-09-14T16:10:10.595Z,22.75
2022-09-14T16:12:38.666Z,24.52
2022-09-14T16:15:07.956Z,25.66
2022-09-14T16:17:36.038Z,24.83
2022-09-14T16:20:05.656Z,23.77
2022-09-14T16:22:33.717Z,22.99
2022-09-14T16:25:02.095Z,22.42
2022-09-14T16:27:31.299Z,22.61
2022-09-14T16:29:59.467Z,24.64
2022-09-14T16:32:27.952Z,25.61
2022-09-14T16:34:56.018Z,24.68
2022-09-14T16:37:24.090Z,23.63
2022-09-14T16:39:52.199Z,22.86
2022-09-14T16:42:20.336Z,22.32
2022-09-14T16:44:48.407Z,22.55
2022-09-14T16:47:16.478Z,24.63
2022-09-14T16:49:44.857Z,25.64
2022-09-14T16:52:12.934Z,24.71
2022-09-14T16:54:41.104Z,23.64
2022-09-14T16:57:09.685Z,22.87
2022-09-14T16:59:37.861Z,22.30
2022-09-14T17:02:06.585Z,22.38
2022-09-14T17:04:34.719Z,24.32
2022-09-14T17:07:03.302Z,25.26
2022-09-14T17:09:33.013Z,24.29
2022-09-14T17:12:01.188Z,23.26
2022-09-14T17:14:32.846Z,22.50
2022-09-14T17:17:01.016Z,21.94
2022-09-14T17:19:29.598Z,21.51
2022-09-14T17:21:58.079Z,22.31
2022-09-14T17:24:26.154Z,24.42
2022-09-14T17:26:54.223Z,25.12
2022-09-14T17:29:22.410Z,24.11
2022-09-14T17:31:51.091Z,23.08
2022-09-14T17:34:19.358Z,22.33
2022-09-14T17:36:47.532Z,22.27
2022-09-14T17:39:16.014Z,24.09
2022-09-14T17:41:44.438Z,25.10
2022-09-14T17:44:14.755Z,24.20
2022-09-14T17:46:52.531Z,23.13
2022-09-14T17:49:23.235Z,22.30
2022-09-14T17:51:51.892Z,22.24
2022-09-14T17:54:20.886Z,24.11
2022-09-14T17:56:49.721Z,25.22
2022-09-14T17:59:20.558Z,24.33
2022-09-14T18:01:50.469Z,23.24
2022-09-14T18:04:19.564Z,22.44
2022-09-14T18:06:49.918Z,22.37
2022-09-14T18:09:21.545Z,24.06
2022-09-14T18:11:50.736Z,25.02
2022-09-14T18:14:18.918Z,24.15
2022-09-14T18:16:47.193Z,23.13
2022-09-14T18:19:16.384Z,22.36
2022-09-14T18:21:45.928Z,21.77
2022-09-14T18:24:16.120Z,21.93
2022-09-14T18:26:46.574Z,23.85
2022-09-14T18:29:17.480Z,24.77
2022-09-14T18:31:45.629Z,23.79
2022-09-14T18:34:13.929Z,22.75
2022-09-14T18:36:42.104Z,21.97
2022-09-14T18:39:11.611Z,21.89
2022-09-14T18:41:40.296Z,23.72
2022-09-14T18:44:08.571Z,24.78
2022-09-14T18:46:37.814Z,23.93
2022-09-14T18:49:05.942Z,22.83
2022-09-14T18:51:34.227Z,21.98
2022-09-14T18:54:05.190Z,21.86
2022-09-14T18:56:34.985Z,23.61
2022-09-14T18:59:05.111Z,24.84
2022-09-14T19:01:34.854Z,24.39
2022-09-14T19:04:05.547Z,23.23
2022-09-14T19:06:35.411Z,22.36
2022-09-14T19:09:05.259Z,22.42
2022-09-14T19:11:35.481Z,24.29
2022-09-14T19:14:10.307Z,25.21
2022-09-14T19:16:40.885Z,24.22
2022-09-14T19:19:11.954Z,23.10
2022-09-14T19:21:40.127Z,22.65
2022-09-14T19:24:12.028Z,24.14
2022-09-14T19:26:45.506Z,25.22
2022-09-14T19:29:20.335Z,24.32
2022-09-14T19:31:51.854Z,23.16
2022-09-14T19:34:20.400Z,22.34
2022-09-14T19:36:48.611Z,23.05
2022-09-14T19:39:16.952Z,24.83
2022-09-14T19:41:45.017Z,25.18
2022-09-14T19:44:13.770Z,24.07
2022-09-14T19:46:42.034Z,23.03
2022-09-14T19:49:25.528Z,22.77
2022-09-14T19:51:53.899Z,24.54
2022-09-14T19:54:22.803Z,25.08
2022-09-14T19:56:50.942Z,24.08
2022-09-14T19:59:18.967Z,23.11
2022-09-14T20:01:47.373Z,22.44
2022-09-14T20:04:18.451Z,23.25
2022-09-14T20:06:47.767Z,24.91
2022-09-14T20:09:20.925Z,24.95
2022-09-14T20:11:50.613Z,23.83
2022-09-14T20:14:23.655Z,22.92
2022-09-14T20:16:54.812Z,22.72
2022-09-14T20:19:25.854Z,24.43
2022-09-14T20:21:55.170Z,25.22
2022-09-14T20:24:26.461Z,24.22
2022-09-14T20:26:57.246Z,23.17
2022-09-14T20:29:28.618Z,22.44
2022-09-14T20:31:57.643Z,23.14
2022-09-14T20:34:25.777Z,24.93
2022-09-14T20:36:54.490Z,25.02
2022-09-14T20:39:24.053Z,23.91
2022-09-14T20:41:52.960Z,22.98
2022-09-14T20:44:23.305Z,22.72
2022-09-14T20:46:52.063Z,24.31
2022-09-14T20:49:22.795Z,25.34
2022-09-14T20:51:52.877Z,24.44
2022-09-14T20:54:22.204Z,23.38
2022-09-14T20:56:50.536Z,22.61
2022-09-14T20:59:19.830Z,22.57
2022-09-14T21:01:49.791Z,24.33
2022-09-14T21:04:23.550Z,25.19
2022-09-14T21:06:54.587Z,24.15
2022-09-14T21:09:25.123Z,23.06
2022-09-14T21:11:53.745Z,22.27
2022-09-14T21:14:22.605Z,22.61
2022-09-14T21:16:55.293Z,24.47
2022-09-14T21:19:27.221Z,25.10
2022-09-14T21:21:56.931Z,24.00
2022-09-14T21:24:25.534Z,22.97
2022-09-14T21:26:53.601Z,22.25
2022-09-14T21:29:23.981Z,22.94
2022-09-14T21:31:53.317Z,24.71
2022-09-14T21:34:21.714Z,24.89
2022-09-14T21:36:51.622Z,23.73
2022-09-14T21:39:23.938Z,22.70
2022-09-14T21:41:58.329Z,22.02
2022-09-14T21:44:32.835Z,22.98
2022-09-14T21:47:02.074Z,24.61
2022-09-14T21:49:30.925Z,24.82
2022-09-14T21:51:58.999Z,23.71
2022-09-14T21:54:27.461Z,22.73
2022-09-14T21:56:55.956Z,22.53
2022-09-14T21:59:24.385Z,24.11
2022-09-14T22:01:52.807Z,25.02
2022-09-14T22:04:24.163Z,24.09
2022-09-14T22:06:53.507Z,22.99
2022-09-14T22:09:24.506Z,22.26
2022-09-14T22:11:53.192Z,23.19
2022-09-14T22:14:24.886Z,24.83
2022-09-14T22:16:53.223Z,24.89
2022-09-14T22:19:27.248Z,23.71
2022-09-14T22:21:56.730Z,22.72
2022-09-14T22:24:33.521Z,22.51
2022-09-14T22:27:07.629Z,24.34
2022-09-14T22:29:36.621Z,25.22
2022-09-14T22:32:07.458Z,24.19
2022-09-14T22:34:36.044Z,23.06
2022-09-14T22:37:04.113Z,22.31
2022-09-14T22:39:32.184Z,23.19
2022-09-14T22:42:00.358Z,24.73
2022-09-14T22:44:28.429Z,24.89
2022-09-14T22:46:56.444Z,23.79
2022-09-14T22:49:24.502Z,22.82
2022-09-14T22:51:52.951Z,22.63
2022-09-14T22:54:21.228Z,24.22
2022-09-14T22:56:49.503Z,25.14
2022-09-14T22:59:17.779Z,24.27
2022-09-14T23:01:46.228Z,23.24
2022-09-14T23:04:15.048Z,22.51
2022-09-14T23:06:46.074Z,23.20
2022-09-14T23:09:19.895Z,24.94
2022-09-14T23:11:48.554Z,24.97
2022-09-14T23:14:17.073Z,23.87
2022-09-14T23:16:45.779Z,22.95
2022-09-14T23:19:17.608Z,22.73
2022-09-14T23:21:46.309Z,24.31
2022-09-14T23:24:14.981Z,25.26
2022-09-14T23:26:43.255Z,24.38
2022-09-14T23:29:17.266Z,23.34
2022-09-14T23:31:46.856Z,22.61
2022-09-14T23:34:15.550Z,23.45
2022-09-14T23:36:43.738Z,24.85
2022-09-14T23:39:11.807Z,24.74
2022-09-14T23:41:40.907Z,23.68
2022-09-14T23:44:10.534Z,22.79
2022-09-14T23:46:38.995Z,22.68
2022-09-14T23:49:07.533Z,24.04
2022-09-14T23:51:36.156Z,24.84
2022-09-14T23:54:05.237Z,24.08
2022-09-14T23:56:33.324Z,23.06
2022-09-14T23:59:01.393Z,22.39
